Historyczne dane pomiarowe

Dodano dane terminowe – wersja testowa.

Dane z okresu 1951-2019

Wersja bazy: 1.34 [2019-03-16, lista zmian], aktualizacja planowana na 2019-04-15

Dane meteo z obszaru Polski uzyskane na podstawie danych udostępnionych przez Instytut Meteorologii i Gospodarki Wodnej – Państwowy Instytut Badawczy.

 

Wybierz Datę:    

       

TemperaturaWilgotnośćWiatrCiśnienieOpadyŚniegCzas trwania zjawisk
 Stacja t tx tn tng RH VA  wxwx mslp ppp RRR   cm mm wxwxwxwxwxwxwx
1980-10-11 6.7 7.2 5.7- 91.0- 8.0 1.3---- 0.5------------
1980-10-12 9.8 16.7 5.0- 76.5- 6.3 2.7---- 0.5------------
1980-10-13 10.2 15.7 7.4- 92.3- 7.3 1.7---- 14.3------------
1980-10-14 9.4 12.4 7.9- 79.5- 7.7 3.7---- 0.0------------
1980-10-15 8.9 12.4 6.9- 70.5- 6.3 2.7---- 0.0------------
1980-10-16 10.9 15.2 4.5- 84.0- 3.0 3.7---- 0.0------------
1980-10-17 12.9 22.1 5.9- 82.5- 4.0 1.3---- 0.0------------
1980-10-18 14.7 21.0 11.2- 82.3- 7.0 3.0---- 2.5------------
1980-10-19 9.9 16.2 7.5- 94.8- 8.0 2.0---- 8.4------------
1980-10-20 6.3 9.5 2.4- 85.0- 5.3 1.7---- 0.0------------
1980-10-21 1.8 8.5 -0.9- 93.3- 1.3 1.0---- 0.0------------
1980-10-22 6.7 12.9 0.3- 66.0- 2.3 1.3---- 0.0------------
1980-10-23 9.7 12.9 4.5- 70.3- 6.0 1.7---- 0.0------------
1980-10-24 10.5 12.9 8.3- 84.3- 5.0 4.7---- 0.0------------
1980-10-25 11.7 13.8 9.8- 71.0- 7.0 3.0---- 0.0------------
1980-10-26 7.0 11.0 2.8- 76.8- 4.0 4.3---- 0.0------------
1980-10-27 2.7 7.6 0.1- 76.3- 4.3 1.7---- 0.0------------
1980-10-28 7.5 11.4 3.4- 69.3- 2.7 5.0---- 0.0------------
1980-10-29 10.6 15.0 7.0- 67.0- 4.3 4.0---- 3.4------------
1980-10-30 7.7 11.0 5.7- 82.3- 7.0 4.0---- 4.8------------
1980-10-31 2.9 6.0 -0.2- 86.0- 8.0 3.3---- 4.6------------
1980-11-01 -1.0 0.6 -1.7- 84.8- 7.0 3.7---- 5.0------------
1980-11-02 -2.5 -0.9 -3.4- 91.3- 7.7 4.3---- 0.7------------
1980-11-03 -2.4 -0.4 -3.0- 92.3- 8.0 4.0---- 1.0------------
1980-11-04 -3.3 -2.1 -3.8- 90.8- 8.0 1.7---- 0.3-- 3---------
1980-11-05 -2.3 -0.7 -3.5- 92.0- 8.0 3.3---- 3.2-- 3---------
1980-11-06 -0.5 0.3 -1.0- 91.8- 8.0 4.3---- 11.4-- 9---------
1980-11-07 0.0 0.7 -1.4- 92.5- 8.0 2.0---- 12.5-- 5---------
1980-11-08 -2.9 -0.9 -4.1- 86.0- 8.0 2.0---- 0.0-- 10---------
1980-11-09 -1.9 2.3-13.0- 84.5- 8.0 3.7---- 2.4-- 10---------
206.8 ms

 

Źródłem pochodzenia danych jest Instytut Meteorologii i Gospodarki Wodnej – Państwowy Instytut Badawczy. Dane Instytutu Meteorologii i Gospodarki Wodnej – Państwowego Instytutu Badawczego zostały przetworzone.

Dane źródłowe można odnaleźć na stronie https://dane.imgw.pl